Dauphin Barker Airport
CYDN : now visible

Airfield :











YOU CAN JOIN US ON...

 
LOGIN :

Register | Disclaimer

   EN    FR    IT 

 









Legend :    VFR   Marginal VFR   IFR   Intensive IFR   Very Intensive IFR
Visi :
Ceiling :
>= 8 km
>= 3000ft
5 to 8 km
1000 to 3000 ft
1500m to 5 km
500 to 1000 ft
800 to 1500m
200 to 500 ft
< 800m
< 200 ft
Symbols :   Thunderstorms  Fog  Heavy snow  Heavy precipitations  Wind > 20 kt






- Airport Elevation : 999 ft
- IATA code : YDN


CYDN - Dauphin Barker

CURRENT METAR :
  • 072100Z AUTO VRB02KT 9SM OVC070 07/M03 A2964 RMK SLP050

EXPIRED METARs :
  • 072000Z AUTO 11006KT 060V170 9SM CLR 06/M03 A2963 RMK SLP047
  • 071900Z AUTO 06004KT 050V110 9SM CLR 05/M04 A2964 RMK SLP052

TAF TAF CYDN
Valid from the 07 at 18:00 until the 08 at 06:00 UTC


071740Z 0718/0806 29010KT P6SM SCT080
TEMPO 0718/0721 BKN080
FM072100 27010KT P6SM BKN040
TEMPO 0721/0806 4SM -SHRASN BKN020 OVC040
BECMG 0802/0804 28015G25KT RMK FCST BASED ON AUTO OBS. NXT FCST BY 080000Z



MET'MAP, your aeronautical weather chart ! - Copyright ORBIFLY December 2007 - Disclaimer

ORBIFLY MET'MAP TEAM :

Programming & Development : Alexandra Zaïnal
Concept & original design : Baudouin d'Aumeries
Assistance for programming : Marc-Olivier Méhu
Technical & hardware support : Manuel Goepfert

Contact : metmap@orbifly.com




SOURCES & CREDITS :

   NOAA       Earth
Advisory